Time;durP1;ratioP1;P1;durP2;ratioP2;P2;SDS_P1;SDS_P2;PMS_P1;PMS_P2;Temp;Humidity;BMP_temperature;BMP_pressure;BME280_temperature;BME280_humidity;BME280_pressure;Samples;Min_cycle;Max_cycle;Signal;HPM_P1;HPM_P2
2022/06/09 00:02:25;;;;;;;2.60;0.60;;;17.40;99.90;;;;;;10012249;28;20025;-59
2022/06/09 00:07:21;;;;;;;0.70;0.55;;;17.40;99.90;;;;;;9995729;28;20069;-59
2022/06/09 00:12:12;;;;;;;2.60;0.60;;;17.40;99.90;;;;;;10012416;28;20026;-61
2022/06/09 00:17:03;;;;;;;0.50;0.50;;;17.30;99.90;;;;;;10012818;28;20026;-59
2022/06/09 00:21:54;;;;;;;0.55;0.30;;;17.30;99.90;;;;;;10012171;28;20678;-58
2022/06/09 00:26:45;;;;;;;0.82;0.52;;;17.20;99.90;;;;;;10012537;28;20042;-60
2022/06/09 00:31:35;;;;;;;3.30;0.95;;;17.30;99.90;;;;;;10015888;28;20473;-59
2022/06/09 00:36:26;;;;;;;1.38;0.75;;;17.30;99.90;;;;;;10016595;28;20033;-60
2022/06/09 00:41:17;;;;;;;0.45;0.45;;;17.30;99.90;;;;;;10013601;28;20530;-59
2022/06/09 00:46:19;;;;;;;1.17;0.50;;;17.30;99.90;;;;;;10011980;28;20187;-60
2022/06/09 00:51:18;;;;;;;0.60;0.60;;;17.20;99.90;;;;;;10011540;28;20089;-59
2022/06/09 00:56:11;;;;;;;2.47;0.50;;;17.20;99.90;;;;;;10011300;28;20029;-59
2022/06/09 01:01:07;;;;;;;2.20;0.65;;;17.20;99.90;;;;;;10011173;28;20073;-59
2022/06/09 01:06:07;;;;;;;1.33;0.90;;;17.30;99.90;;;;;;10018116;28;20065;-59
2022/06/09 01:10:58;;;;;;;0.85;0.52;;;17.20;99.90;;;;;;10019721;28;20041;-59
2022/06/09 01:16:11;;;;;;;0.73;0.40;;;17.20;99.90;;;;;;10019037;28;20021;-58
2022/06/09 01:21:25;;;;;;;2.10;0.70;;;17.20;99.90;;;;;;10004272;28;20548;-59
2022/06/09 01:26:33;;;;;;;2.28;0.50;;;17.20;99.90;;;;;;10018672;28;20037;-59
2022/06/09 01:31:32;;;;;;;0.90;0.60;;;17.10;99.90;;;;;;10018936;28;20017;-60
2022/06/09 01:36:35;;;;;;;4.22;0.85;;;17.10;99.90;;;;;;10020665;28;20508;-59
2022/06/09 01:41:26;;;;;;;4.57;1.70;;;17.10;99.80;;;;;;10017968;28;20034;-59
2022/06/09 01:46:28;;;;;;;2.08;0.80;;;17.10;99.80;;;;;;10018372;28;20089;-60
2022/06/09 01:51:21;;;;;;;1.05;0.70;;;17.00;99.80;;;;;;10017959;28;20042;-59
2022/06/09 01:56:25;;;;;;;1.02;0.70;;;17.10;99.70;;;;;;10018483;28;20038;-60
2022/06/09 02:01:19;;;;;;;1.23;0.57;;;17.00;99.60;;;;;;10012468;28;20029;-60
2022/06/09 02:06:11;;;;;;;1.05;0.73;;;17.10;99.60;;;;;;10017301;28;20032;-59
2022/06/09 02:11:08;;;;;;;1.83;0.60;;;17.00;99.70;;;;;;10016396;28;20038;-60
2022/06/09 02:16:03;;;;;;;3.90;0.80;;;17.00;99.50;;;;;;10017568;28;20046;-60
2022/06/09 02:21:02;;;;;;;0.98;0.70;;;16.90;99.60;;;;;;10016575;28;20022;-58
2022/06/09 02:25:53;;;;;;;1.35;0.80;;;16.80;99.60;;;;;;10017341;28;20130;-60
2022/06/09 02:30:44;;;;;;;1.00;0.68;;;16.70;99.60;;;;;;10016352;28;20642;-61
2022/06/09 02:35:35;;;;;;;0.70;0.68;;;16.70;99.70;;;;;;10016619;28;20037;-60
2022/06/09 02:40:29;;;;;;;3.72;0.70;;;16.70;99.50;;;;;;10016298;28;20018;-60
2022/06/09 02:45:20;;;;;;;2.50;1.02;;;16.80;99.40;;;;;;10016272;28;20056;-59
2022/06/09 02:50:12;;;;;;;3.85;1.98;;;16.70;99.40;;;;;;10015977;28;20046;-59
2022/06/09 02:55:03;;;;;;;6.30;1.55;;;16.70;99.40;;;;;;9998623;28;20052;-59
2022/06/09 02:59:53;;;;;;;2.22;1.65;;;16.70;99.40;;;;;;9997359;28;20030;-60
2022/06/09 03:04:44;;;;;;;1.15;0.70;;;16.60;99.30;;;;;;10014800;28;20034;-60
2022/06/09 03:09:35;;;;;;;0.70;0.63;;;16.50;99.50;;;;;;10014602;28;20045;-58
2022/06/09 03:14:25;;;;;;;1.20;0.73;;;16.50;99.40;;;;;;10015080;28;20567;-59
2022/06/09 03:19:18;;;;;;;2.78;1.00;;;16.40;99.50;;;;;;10014040;28;20030;-59
2022/06/09 03:24:08;;;;;;;2.58;0.90;;;16.50;99.40;;;;;;10014728;28;20060;-60
2022/06/09 03:28:59;;;;;;;2.10;0.85;;;16.40;99.50;;;;;;10014080;28;20570;-59
2022/06/09 03:33:50;;;;;;;2.20;0.88;;;16.30;99.50;;;;;;10013805;28;20030;-60
2022/06/09 03:38:40;;;;;;;1.33;0.73;;;16.20;99.60;;;;;;10013608;28;20014;-60
2022/06/09 03:43:31;;;;;;;1.80;1.38;;;16.20;99.70;;;;;;10013230;28;20107;-60
2022/06/09 03:48:21;;;;;;;4.10;1.05;;;16.10;99.70;;;;;;10013275;28;20053;-60
2022/06/09 03:53:12;;;;;;;1.55;0.80;;;16.10;99.80;;;;;;10012308;28;20320;-59
2022/06/09 03:58:03;;;;;;;2.72;0.85;;;15.90;99.70;;;;;;10019416;28;20380;-59
2022/06/09 04:02:54;;;;;;;1.58;0.82;;;15.90;99.90;;;;;;10011693;28;20037;-59
2022/06/09 04:07:45;;;;;;;2.55;1.05;;;15.90;99.80;;;;;;10013147;28;20503;-59
2022/06/09 04:12:36;;;;;;;4.07;1.35;;;16.00;99.80;;;;;;10011796;28;20018;-60
2022/06/09 04:17:26;;;;;;;2.88;0.88;;;16.10;99.80;;;;;;10012985;28;20018;-58
2022/06/09 04:22:17;;;;;;;2.83;0.70;;;16.10;99.60;;;;;;10012895;28;20030;-61
2022/06/09 04:27:09;;;;;;;4.57;0.90;;;16.10;99.70;;;;;;10012810;28;20034;-60
2022/06/09 04:31:59;;;;;;;3.60;0.90;;;16.20;99.60;;;;;;10012109;28;20492;-60
2022/06/09 04:36:50;;;;;;;5.20;1.08;;;16.20;99.50;;;;;;10015061;28;20026;-61
2022/06/09 04:41:41;;;;;;;2.25;1.10;;;16.30;99.50;;;;;;10020673;28;20032;-60
2022/06/09 04:46:32;;;;;;;4.20;1.05;;;16.30;99.40;;;;;;10020259;28;20022;-62
2022/06/09 04:51:26;;;;;;;4.30;1.23;;;16.30;99.30;;;;;;10019967;28;20400;-61
2022/06/09 04:56:18;;;;;;;3.90;1.30;;;16.30;99.20;;;;;;10020390;28;20014;-58
2022/06/09 05:01:20;;;;;;;1.20;0.82;;;16.30;99.10;;;;;;10019688;28;20543;-61
2022/06/09 05:06:10;;;;;;;2.45;1.45;;;16.20;99.10;;;;;;10017808;28;20488;-59
2022/06/09 05:11:01;;;;;;;2.47;1.48;;;16.20;99.00;;;;;;10019099;28;20156;-60
2022/06/09 05:15:54;;;;;;;4.00;1.73;;;16.30;98.90;;;;;;10020210;28;21242;-61
2022/06/09 05:20:45;;;;;;;3.47;1.65;;;16.40;98.70;;;;;;10000599;28;20033;-61
2022/06/09 05:25:36;;;;;;;3.80;1.10;;;16.30;98.70;;;;;;10019013;28;20408;-61
2022/06/09 05:30:30;;;;;;;3.22;0.60;;;16.30;98.70;;;;;;10001436;28;20041;-60
2022/06/09 05:35:22;;;;;;;3.78;1.13;;;16.40;98.90;;;;;;10018651;28;20057;-58
2022/06/09 05:45:22;;;;;;;2.78;0.98;;;16.50;98.50;;;;;;10018335;28;20119;-60
2022/06/09 05:50:14;;;;;;;1.98;0.80;;;16.70;98.30;;;;;;10017278;28;20135;-60
2022/06/09 05:55:05;;;;;;;2.67;1.27;;;16.60;98.30;;;;;;9998778;28;20037;-60
2022/06/09 05:59:56;;;;;;;2.17;1.08;;;16.70;98.30;;;;;;10018045;28;20030;-58
2022/06/09 06:04:46;;;;;;;2.40;1.08;;;16.60;98.20;;;;;;10017761;28;20072;-59
2022/06/09 06:09:37;;;;;;;5.30;1.25;;;16.80;98.10;;;;;;10016593;28;20045;-59
2022/06/09 06:14:28;;;;;;;3.08;1.15;;;16.90;98.00;;;;;;10016568;28;20034;-59
2022/06/09 06:19:19;;;;;;;3.78;1.65;;;16.90;97.90;;;;;;10017148;28;20396;-59
2022/06/09 06:24:11;;;;;;;3.67;1.92;;;17.00;97.80;;;;;;10003687;28;20084;-60
2022/06/09 06:29:06;;;;;;;4.32;0.90;;;17.10;97.70;;;;;;10017091;28;20539;-59
2022/06/09 06:33:58;;;;;;;1.80;1.33;;;17.00;97.60;;;;;;10017288;28;20522;-58
2022/06/09 06:38:49;;;;;;;4.65;1.50;;;17.10;97.50;;;;;;10017047;28;20034;-61
2022/06/09 06:43:40;;;;;;;5.32;1.88;;;17.10;97.40;;;;;;9997328;28;20172;-59
2022/06/09 06:48:32;;;;;;;3.90;1.40;;;17.20;97.30;;;;;;10016262;28;20196;-58
2022/06/09 06:53:23;;;;;;;3.50;0.93;;;17.30;97.10;;;;;;10013379;28;20042;-59
2022/06/09 06:58:14;;;;;;;6.28;1.10;;;17.40;97.00;;;;;;10012940;28;20049;-60
2022/06/09 07:03:07;;;;;;;4.38;1.10;;;17.60;96.70;;;;;;10012806;28;20544;-63
2022/06/09 07:07:58;;;;;;;4.57;1.13;;;17.90;96.60;;;;;;10014370;28;20042;-59
2022/06/09 07:12:48;;;;;;;3.00;1.20;;;18.00;96.50;;;;;;10013402;28;20080;-61
2022/06/09 07:17:39;;;;;;;3.30;1.40;;;18.00;96.30;;;;;;10015991;28;20029;-59
2022/06/09 07:22:30;;;;;;;4.82;1.40;;;18.00;96.10;;;;;;10013025;28;20026;-60
2022/06/09 07:27:21;;;;;;;3.35;1.05;;;18.10;95.90;;;;;;10015525;28;20056;-60
2022/06/09 07:32:11;;;;;;;5.13;1.08;;;18.30;95.60;;;;;;10016148;28;20117;-60
2022/06/09 07:37:03;;;;;;;2.10;0.82;;;18.30;95.30;;;;;;10015855;28;20030;-60
2022/06/09 07:41:54;;;;;;;2.83;1.13;;;18.40;94.80;;;;;;10014423;28;20097;-60
2022/06/09 07:46:45;;;;;;;10.07;1.30;;;18.40;94.50;;;;;;10013474;28;20120;-59
2022/06/09 07:51:37;;;;;;;4.50;1.23;;;18.60;94.10;;;;;;10013253;28;20530;-60
2022/06/09 07:56:29;;;;;;;5.80;1.45;;;18.60;94.00;;;;;;10013014;28;20105;-60
2022/06/09 08:01:22;;;;;;;3.10;0.95;;;18.40;93.70;;;;;;10013369;28;20038;-61
2022/06/09 08:06:14;;;;;;;2.60;1.15;;;18.10;93.80;;;;;;10013647;28;20103;-61
2022/06/09 08:11:07;;;;;;;5.22;1.48;;;18.10;93.80;;;;;;10013089;28;20406;-59
2022/06/09 08:15:58;;;;;;;5.05;2.00;;;18.30;93.60;;;;;;10013037;28;20084;-61
2022/06/09 08:20:49;;;;;;;2.30;0.95;;;18.40;93.30;;;;;;10013459;28;20063;-59
2022/06/09 08:25:41;;;;;;;3.90;1.42;;;18.40;93.20;;;;;;10014343;28;20034;-60
2022/06/09 08:30:34;;;;;;;2.53;0.88;;;18.50;93.10;;;;;;10014286;28;20129;-61
2022/06/09 08:35:25;;;;;;;4.57;1.20;;;18.50;92.90;;;;;;10016110;28;20116;-60
2022/06/09 08:40:19;;;;;;;2.10;1.05;;;18.60;92.80;;;;;;10016049;28;20555;-62
2022/06/09 08:45:16;;;;;;;4.53;1.60;;;18.80;92.60;;;;;;10014689;28;20046;-59
2022/06/09 08:50:19;;;;;;;3.90;1.20;;;18.80;92.30;;;;;;10013013;28;20050;-59
2022/06/09 08:55:18;;;;;;;4.00;1.38;;;19.00;92.10;;;;;;10012965;28;20029;-60
2022/06/09 09:00:13;;;;;;;4.70;1.27;;;19.00;91.70;;;;;;10012514;28;20492;-60
2022/06/09 09:05:12;;;;;;;5.03;1.10;;;19.10;91.90;;;;;;9995235;28;20018;-60
2022/06/09 09:10:41;;;;;;;2.08;0.90;;;19.50;91.60;;;;;;10022896;28;20124;-62
2022/06/09 09:15:56;;;;;;;1.63;1.15;;;19.80;91.40;;;;;;9999133;28;20049;-62
2022/06/09 09:21:10;;;;;;;5.70;1.33;;;19.80;91.20;;;;;;10013292;28;20010;-63
2022/06/09 09:26:22;;;;;;;2.65;1.17;;;19.60;91.20;;;;;;9981051;28;20497;-61
2022/06/09 09:31:18;;;;;;;1.73;1.17;;;19.80;91.10;;;;;;10018578;28;20029;-59
2022/06/09 09:36:24;;;;;;;2.28;1.05;;;20.00;91.10;;;;;;10018694;28;20030;-60
2022/06/09 09:41:33;;;;;;;4.93;1.77;;;19.70;90.50;;;;;;10017566;28;20034;-61
2022/06/09 09:46:34;;;;;;;3.63;1.17;;;19.60;90.90;;;;;;10018361;28;20034;-60
2022/06/09 09:51:37;;;;;;;1.55;1.15;;;19.80;90.60;;;;;;10017780;28;20174;-59
2022/06/09 09:56:35;;;;;;;3.50;1.30;;;19.90;90.00;;;;;;10017874;28;20488;-60
2022/06/09 10:08:35;;;;;;;2.20;1.13;;;19.80;90.20;;;;;;10018014;28;20087;-60
2022/06/09 10:12:17;;;;;;;5.18;1.67;;;19.40;89.90;;;;;;9994700;28;20045;-60
2022/06/09 10:17:20;;;;;;;5.15;1.40;;;19.40;89.40;;;;;;10018333;28;20096;-59
2022/06/09 10:22:22;;;;;;;3.95;1.30;;;19.50;89.00;;;;;;10009970;28;20022;-61
2022/06/09 10:27:19;;;;;;;3.22;1.10;;;19.30;88.40;;;;;;10017583;28;20042;-60
2022/06/09 10:32:33;;;;;;;2.47;0.82;;;19.40;89.00;;;;;;10016790;28;20504;-61
2022/06/09 10:37:49;;;;;;;5.55;0.98;;;19.40;88.80;;;;;;10017514;28;20322;-59
2022/06/09 10:43:17;;;;;;;2.05;0.98;;;19.90;88.00;;;;;;10008863;28;20213;-60
2022/06/09 10:59:48;;;;;;;3.47;2.17;;;20.60;86.70;;;;;;9991052;28;20038;-59
2022/06/09 11:04:39;;;;;;;4.20;1.20;;;20.20;87.30;;;;;;10013326;28;20117;-61
2022/06/09 11:09:46;;;;;;;1.88;0.68;;;19.70;88.10;;;;;;10014611;28;20542;-61
2022/06/09 11:14:39;;;;;;;3.00;0.77;;;19.70;88.00;;;;;;10015158;28;20488;-60
2022/06/09 11:20:00;;;;;;;6.78;1.88;;;19.80;87.20;;;;;;10014410;28;20022;-61
2022/06/09 11:25:08;;;;;;;2.83;0.90;;;20.10;86.10;;;;;;10014069;28;20056;-59
2022/06/09 11:30:17;;;;;;;1.90;1.50;;;20.10;85.20;;;;;;9996137;28;20081;-59
2022/06/09 11:35:20;;;;;;;3.50;1.00;;;20.30;84.50;;;;;;10014119;28;20605;-60
2022/06/09 11:40:21;;;;;;;3.28;0.80;;;20.30;84.60;;;;;;10013285;28;20034;-59
2022/06/09 11:45:39;;;;;;;2.30;0.77;;;20.40;84.90;;;;;;10005276;28;20034;-61
2022/06/09 11:50:35;;;;;;;3.22;1.10;;;20.50;84.10;;;;;;9984699;28;20439;-58
2022/06/09 12:00:43;;;;;;;3.22;1.17;;;20.90;84.90;;;;;;10009093;28;20528;-60
2022/06/09 12:05:49;;;;;;;6.88;1.27;;;21.50;84.30;;;;;;9993943;28;20041;-58
2022/06/09 12:10:58;;;;;;;2.97;1.05;;;21.60;83.10;;;;;;9993640;28;20443;-59
2022/06/09 12:16:33;;;;;;;7.30;1.30;;;21.50;83.40;;;;;;10011035;28;20097;-60
2022/06/09 12:21:35;;;;;;;1.90;1.00;;;21.80;82.60;;;;;;9850308;29;20047;-60
2022/06/09 12:26:40;;;;;;;4.30;1.55;;;22.00;82.30;;;;;;9973243;28;20303;-60
2022/06/09 12:31:32;;;;;;;2.90;1.13;;;21.40;83.40;;;;;;10009391;28;20018;-60
2022/06/09 12:36:49;;;;;;;4.15;1.60;;;21.40;83.70;;;;;;10009204;28;20656;-59
2022/06/09 12:41:43;;;;;;;7.28;1.55;;;22.20;81.90;;;;;;10011116;28;20080;-60
2022/06/09 12:46:40;;;;;;;5.00;1.60;;;22.90;83.60;;;;;;10010995;28;20025;-61
2022/06/09 12:51:34;;;;;;;4.68;1.27;;;21.90;83.30;;;;;;10010439;28;20046;-59
2022/06/09 12:56:42;;;;;;;2.42;0.82;;;23.00;82.60;;;;;;10010831;28;20026;-62
2022/06/09 13:01:33;;;;;;;3.85;1.83;;;24.40;79.40;;;;;;10014555;28;20124;-61
2022/06/09 13:06:28;;;;;;;3.45;1.20;;;25.90;77.80;;;;;;10016235;28;20038;-59
2022/06/09 13:16:47;;;;;;;3.97;1.70;;;28.00;72.60;;;;;;10016018;28;20117;-60
2022/06/09 13:21:40;;;;;;;4.03;1.80;;;29.00;70.40;;;;;;10018341;28;20279;-62
2022/06/09 13:26:36;;;;;;;3.92;1.08;;;28.80;66.50;;;;;;10019932;28;20261;-61
2022/06/09 13:31:36;;;;;;;3.78;1.15;;;28.90;64.60;;;;;;10020170;28;20390;-59
2022/06/09 13:36:32;;;;;;;3.88;1.23;;;29.40;62.20;;;;;;10017616;28;20038;-59
2022/06/09 13:41:31;;;;;;;2.08;1.55;;;29.80;60.50;;;;;;10016919;28;20030;-60
2022/06/09 13:46:31;;;;;;;4.18;1.55;;;29.30;58.70;;;;;;10024329;28;20030;-61
2022/06/09 13:51:28;;;;;;;3.17;1.10;;;29.20;56.80;;;;;;10018431;28;20038;-60
2022/06/09 13:56:20;;;;;;;3.95;1.02;;;29.60;56.50;;;;;;10017875;28;20026;-60
2022/06/09 14:01:11;;;;;;;2.53;1.00;;;29.90;55.10;;;;;;10013939;28;20034;-59
2022/06/09 14:06:05;;;;;;;3.75;1.40;;;30.60;55.00;;;;;;10023991;28;20042;-60
2022/06/09 14:10:56;;;;;;;2.08;0.90;;;29.00;56.80;;;;;;10016688;28;20504;-60
2022/06/09 14:15:50;;;;;;;2.83;1.00;;;28.60;56.30;;;;;;10025295;28;20030;-60
2022/06/09 14:20:40;;;;;;;2.35;1.23;;;29.70;53.60;;;;;;10018184;28;20018;-61
2022/06/09 14:25:31;;;;;;;3.33;0.80;;;29.50;52.10;;;;;;10016833;28;20025;-60
2022/06/09 14:30:23;;;;;;;3.17;0.70;;;29.90;50.80;;;;;;10017790;28;20052;-59
2022/06/09 14:35:16;;;;;;;1.80;0.90;;;29.10;51.10;;;;;;10015884;28;20064;-59
2022/06/09 14:40:22;;;;;;;4.53;1.10;;;29.40;48.90;;;;;;9998520;28;20033;-60
2022/06/09 14:45:13;;;;;;;3.28;0.98;;;29.00;48.50;;;;;;10016778;28;20089;-59
2022/06/09 14:50:04;;;;;;;2.28;1.08;;;29.40;48.10;;;;;;10015766;28;20121;-61
2022/06/09 14:54:55;;;;;;;2.33;1.05;;;29.90;47.50;;;;;;10015687;28;20121;-62
2022/06/09 14:59:46;;;;;;;2.45;1.00;;;30.30;47.20;;;;;;10014468;28;20213;-60
2022/06/09 15:04:36;;;;;;;3.30;0.88;;;30.00;46.70;;;;;;10014779;28;20018;-61
2022/06/09 15:09:27;;;;;;;2.05;1.00;;;30.10;46.50;;;;;;10018593;28;20064;-60
2022/06/09 15:14:18;;;;;;;5.40;1.13;;;30.50;45.90;;;;;;10016791;28;20029;-60
2022/06/09 15:19:09;;;;;;;2.40;0.80;;;30.50;45.30;;;;;;10014184;28;20613;-59
2022/06/09 15:24:00;;;;;;;2.95;0.90;;;30.30;45.10;;;;;;9996474;28;20036;-59
2022/06/09 15:28:51;;;;;;;2.17;0.90;;;30.00;44.90;;;;;;10014495;28;20049;-59
2022/06/09 15:33:42;;;;;;;2.08;0.80;;;30.50;43.90;;;;;;10014064;28;20456;-60
2022/06/09 15:38:33;;;;;;;2.28;1.25;;;30.60;43.50;;;;;;10013595;28;20104;-60
2022/06/09 15:43:23;;;;;;;1.42;0.82;;;30.40;43.00;;;;;;10014037;28;20515;-60
2022/06/09 15:48:21;;;;;;;2.17;1.30;;;30.60;42.50;;;;;;10014034;28;20227;-59
2022/06/09 15:53:13;;;;;;;4.13;1.50;;;30.70;42.10;;;;;;10012824;28;20069;-60
2022/06/09 15:58:04;;;;;;;2.20;0.85;;;30.80;42.10;;;;;;10012600;28;20036;-60
2022/06/09 16:02:55;;;;;;;1.80;1.00;;;31.00;42.00;;;;;;10008294;28;20025;-60
2022/06/09 16:07:47;;;;;;;3.20;0.98;;;30.80;41.70;;;;;;10003492;28;20500;-61
2022/06/09 16:12:37;;;;;;;3.40;1.40;;;30.60;41.80;;;;;;9997842;28;20060;-60
2022/06/09 16:17:31;;;;;;;3.25;1.17;;;28.60;42.80;;;;;;10012498;28;20508;-61
2022/06/09 16:22:22;;;;;;;3.33;0.93;;;26.80;44.80;;;;;;10007094;28;20038;-61
2022/06/09 16:27:12;;;;;;;2.70;1.10;;;30.10;42.60;;;;;;10019040;28;20026;-60
2022/06/09 16:32:04;;;;;;;2.95;0.93;;;31.60;41.90;;;;;;10004203;28;20248;-60
2022/06/09 16:36:54;;;;;;;1.58;1.23;;;29.90;42.70;;;;;;10019608;28;20026;-61
2022/06/09 16:41:46;;;;;;;2.63;0.80;;;30.60;43.20;;;;;;10018538;28;20029;-62
2022/06/09 16:46:36;;;;;;;5.43;1.40;;;28.30;43.70;;;;;;10017695;28;20036;-61
2022/06/09 16:51:27;;;;;;;2.47;1.52;;;25.90;45.70;;;;;;10018191;28;20401;-59
2022/06/09 16:56:18;;;;;;;4.20;1.10;;;24.80;46.30;;;;;;10011697;28;20444;-59
2022/06/09 17:01:09;;;;;;;2.85;1.30;;;24.30;46.70;;;;;;10016096;28;20038;-58
2022/06/09 17:06:05;;;;;;;5.50;1.02;;;24.20;47.00;;;;;;10014631;28;20034;-63
2022/06/09 17:10:55;;;;;;;4.53;1.35;;;24.40;46.70;;;;;;10000574;28;20061;-57
2022/06/09 17:15:46;;;;;;;2.67;0.90;;;28.50;44.10;;;;;;10017197;28;20040;-59
2022/06/09 17:20:37;;;;;;;3.65;1.38;;;31.50;41.80;;;;;;9997873;28;20081;-62
2022/06/09 17:25:28;;;;;;;4.72;1.40;;;32.40;41.70;;;;;;9999435;28;20525;-58
2022/06/09 17:30:19;;;;;;;2.17;1.17;;;32.60;41.10;;;;;;10017883;28;20038;-60
2022/06/09 17:35:11;;;;;;;1.98;0.90;;;33.10;40.90;;;;;;10018310;28;20089;-60
2022/06/09 17:40:02;;;;;;;2.67;1.80;;;32.80;41.10;;;;;;10018621;28;20036;-61
2022/06/09 17:44:53;;;;;;;5.40;1.65;;;32.50;41.10;;;;;;10017107;28;20282;-61
2022/06/09 17:49:44;;;;;;;5.15;1.92;;;31.70;41.40;;;;;;10016207;28;20469;-59
2022/06/09 17:54:35;;;;;;;3.30;1.55;;;31.10;41.80;;;;;;10018556;28;20022;-58
2022/06/09 17:59:25;;;;;;;3.88;1.27;;;30.90;41.50;;;;;;10017614;28;20129;-57
2022/06/09 18:04:16;;;;;;;5.80;2.25;;;28.70;42.70;;;;;;10016677;28;20117;-59
2022/06/09 18:09:08;;;;;;;2.33;1.58;;;26.60;43.90;;;;;;10018604;28;20034;-62
2022/06/09 18:13:59;;;;;;;2.60;1.10;;;25.40;44.60;;;;;;10017223;28;20038;-62
2022/06/09 18:18:50;;;;;;;3.65;1.40;;;25.30;44.60;;;;;;10017453;28;20145;-60
2022/06/09 18:23:41;;;;;;;1.95;1.27;;;24.70;44.50;;;;;;10017778;28;20132;-60
2022/06/09 18:28:32;;;;;;;1.83;1.20;;;24.10;45.30;;;;;;10017546;28;20269;-63
2022/06/09 18:33:24;;;;;;;3.75;1.63;;;23.80;45.50;;;;;;10016607;28;20512;-60
2022/06/09 18:38:16;;;;;;;3.83;1.85;;;23.50;46.00;;;;;;10016784;28;20030;-58
2022/06/09 18:43:08;;;;;;;3.50;0.93;;;23.40;46.30;;;;;;10015929;28;20109;-59
2022/06/09 18:47:59;;;;;;;3.83;1.40;;;23.10;47.00;;;;;;10017691;28;20574;-59
2022/06/09 18:52:50;;;;;;;2.17;1.15;;;23.00;47.40;;;;;;10017119;28;20455;-60
2022/06/09 18:57:41;;;;;;;7.35;1.83;;;22.90;47.70;;;;;;10012919;28;20120;-59
2022/06/09 19:02:32;;;;;;;4.63;1.50;;;22.70;48.20;;;;;;10019027;28;20056;-59
2022/06/09 19:07:22;;;;;;;2.85;1.73;;;22.60;48.70;;;;;;10014775;28;20100;-62
2022/06/09 19:12:13;;;;;;;4.80;2.20;;;22.50;49.20;;;;;;10014870;28;20026;-59
2022/06/09 19:17:06;;;;;;;1.60;0.95;;;22.40;49.80;;;;;;10013058;28;20033;-60
2022/06/09 19:21:57;;;;;;;4.97;1.27;;;22.40;49.90;;;;;;10013459;28;20121;-59
2022/06/09 19:26:47;;;;;;;4.47;1.90;;;22.20;50.60;;;;;;10014043;28;20134;-60
2022/06/09 19:31:38;;;;;;;7.65;1.33;;;22.10;51.10;;;;;;10014342;28;20030;-60
2022/06/09 19:36:31;;;;;;;3.83;1.23;;;22.00;51.80;;;;;;10016052;28;20030;-60
2022/06/09 19:41:22;;;;;;;1.02;0.95;;;21.90;52.20;;;;;;10014145;28;20037;-60
2022/06/09 19:46:25;;;;;;;3.95;1.40;;;21.90;52.40;;;;;;10013690;28;20108;-59
2022/06/09 19:51:17;;;;;;;2.33;1.42;;;21.70;53.80;;;;;;9983942;28;20125;-61
2022/06/09 19:56:18;;;;;;;6.22;1.75;;;21.50;53.50;;;;;;10014662;28;20050;-60
2022/06/09 20:01:12;;;;;;;6.97;1.48;;;21.60;53.90;;;;;;10014428;28;20049;-62
2022/06/09 20:06:05;;;;;;;6.15;1.10;;;21.40;54.10;;;;;;10013046;28;20040;-57
2022/06/09 20:10:56;;;;;;;2.80;1.30;;;21.40;54.50;;;;;;10015742;28;20055;-60
2022/06/09 20:15:47;;;;;;;4.25;1.48;;;21.20;55.00;;;;;;10011828;28;20022;-59
2022/06/09 20:20:47;;;;;;;2.85;1.33;;;21.10;55.40;;;;;;10015005;28;20125;-60
2022/06/09 20:25:40;;;;;;;1.60;1.02;;;21.00;55.90;;;;;;10011952;28;20049;-58
2022/06/09 20:30:33;;;;;;;3.58;1.20;;;21.00;56.10;;;;;;10014372;28;20532;-60
2022/06/09 20:35:24;;;;;;;4.85;1.83;;;20.90;56.70;;;;;;10014931;28;20088;-60
2022/06/09 20:40:21;;;;;;;3.30;1.63;;;21.00;56.80;;;;;;10013969;28;20089;-63
2022/06/09 20:45:12;;;;;;;6.70;1.58;;;20.90;57.10;;;;;;10014980;28;20042;-60
2022/06/09 20:50:09;;;;;;;2.40;1.45;;;21.00;57.40;;;;;;10012583;28;20397;-60
2022/06/09 20:55:01;;;;;;;5.63;1.85;;;20.80;57.70;;;;;;10014268;28;20551;-59
2022/06/09 20:59:52;;;;;;;5.35;1.42;;;20.60;59.10;;;;;;10016064;28;20030;-60
2022/06/09 21:04:43;;;;;;;4.43;1.60;;;20.40;59.10;;;;;;10014687;28;20034;-61
2022/06/09 21:09:33;;;;;;;9.45;1.73;;;20.40;59.50;;;;;;10012986;28;20029;-61
2022/06/09 21:19:47;;;;;;;5.32;1.60;;;20.10;60.10;;;;;;9970284;28;20030;-60
2022/06/09 21:24:38;;;;;;;2.35;1.80;;;20.00;60.90;;;;;;10020330;28;20022;-61
2022/06/09 21:29:28;;;;;;;5.63;1.75;;;20.00;61.00;;;;;;10019950;28;20038;-60
2022/06/09 21:34:19;;;;;;;4.95;1.80;;;20.00;61.30;;;;;;9999945;28;20028;-59
2022/06/09 21:39:10;;;;;;;5.18;2.17;;;19.80;61.90;;;;;;10016870;28;20030;-62
2022/06/09 21:44:01;;;;;;;2.38;1.17;;;19.70;62.40;;;;;;10019717;28;20076;-62
2022/06/09 21:48:52;;;;;;;2.83;1.17;;;19.90;62.30;;;;;;10023662;28;20605;-62
2022/06/09 21:53:42;;;;;;;4.53;1.52;;;19.90;62.60;;;;;;10018506;28;20104;-61
2022/06/09 21:58:34;;;;;;;4.10;1.40;;;19.90;62.70;;;;;;10018680;28;20026;-63
2022/06/09 22:03:24;;;;;;;7.10;1.98;;;19.80;63.20;;;;;;10017945;28;20083;-61
2022/06/09 22:08:16;;;;;;;6.75;1.67;;;19.60;63.60;;;;;;10017091;28;20124;-62
2022/06/09 22:13:07;;;;;;;4.63;1.25;;;19.50;65.00;;;;;;10012088;28;20546;-62
2022/06/09 22:17:58;;;;;;;1.88;1.23;;;19.40;64.60;;;;;;10020865;28;20044;-63
2022/06/09 22:22:49;;;;;;;6.25;1.75;;;19.40;64.90;;;;;;10017030;28;20020;-62
2022/06/09 22:27:40;;;;;;;2.47;1.42;;;19.50;65.00;;;;;;10017280;28;20045;-63
2022/06/09 22:32:31;;;;;;;3.05;1.10;;;19.30;65.20;;;;;;10016948;28;20026;-62
2022/06/09 22:37:23;;;;;;;3.47;1.65;;;19.40;65.60;;;;;;10017635;28;20040;-62
2022/06/09 22:42:14;;;;;;;4.40;1.50;;;19.30;65.60;;;;;;10017111;28;20026;-62
2022/06/09 22:47:04;;;;;;;4.38;1.45;;;19.10;66.40;;;;;;9997054;28;20030;-62
2022/06/09 22:51:55;;;;;;;3.65;1.02;;;19.10;66.60;;;;;;10016504;28;20788;-62
2022/06/09 22:56:46;;;;;;;2.38;1.08;;;19.10;66.80;;;;;;9998802;28;20115;-61
2022/06/09 23:01:37;;;;;;;4.25;1.48;;;19.10;67.00;;;;;;10015660;28;20026;-62
2022/06/09 23:06:28;;;;;;;3.70;1.17;;;19.00;67.30;;;;;;10015484;28;20030;-63
2022/06/09 23:11:20;;;;;;;1.98;1.35;;;18.90;67.70;;;;;;10015206;28;20034;-61
2022/06/09 23:16:35;;;;;;;5.55;2.15;;;19.00;67.80;;;;;;10014598;28;20484;-62
2022/06/09 23:21:26;;;;;;;1.65;1.35;;;18.90;68.30;;;;;;10004708;28;20026;-62
2022/06/09 23:26:20;;;;;;;7.07;2.00;;;19.00;68.30;;;;;;10014067;28;20088;-62
2022/06/09 23:31:12;;;;;;;4.27;1.97;;;18.70;68.90;;;;;;9996630;28;20419;-61
2022/06/09 23:36:04;;;;;;;2.10;1.50;;;18.70;69.40;;;;;;10015092;28;20120;-61
2022/06/09 23:40:55;;;;;;;4.60;1.77;;;18.70;69.50;;;;;;10014897;28;20432;-61
2022/06/09 23:45:48;;;;;;;3.72;1.20;;;18.70;69.90;;;;;;10015870;28;20037;-61
2022/06/09 23:50:47;;;;;;;2.70;1.30;;;18.60;70.40;;;;;;10013013;28;20523;-61
2022/06/09 23:55:40;;;;;;;5.55;1.10;;;18.60;70.40;;;;;;10014465;28;20037;-60
